Time;durP1;ratioP1;P1;durP2;ratioP2;P2;SDS_P1;SDS_P2;PMS_P1;PMS_P2;Temp;Humidity;BMP_temperature;BMP_pressure;BME280_temperature;BME280_humidity;BME280_pressure;Samples;Min_cycle;Max_cycle;Signal;HPM_P1;HPM_P2
2022/12/10 02:51:39;;;;;;;26.10;17.87;;;;;;;0.97;100.00;99093.42;1725329;80;24152;-72
2022/12/10 02:54:09;;;;;;;24.82;17.17;;;;;;;0.97;100.00;99105.34;1695834;84;21980;-74
2022/12/10 02:56:50;;;;;;;24.52;18.05;;;;;;;0.99;100.00;99105.96;1690980;84;21284;-74
2022/12/10 02:59:35;;;;;;;21.57;18.15;;;;;;;1.05;100.00;99098.54;1664184;84;21091;-76
2022/12/10 03:02:16;;;;;;;25.62;17.57;;;;;;;1.10;100.00;99087.66;1660921;85;21566;-73
2022/12/10 03:04:53;;;;;;;21.68;16.32;;;;;;;1.14;100.00;99089.38;1694437;84;20999;-73
2022/12/10 03:07:34;;;;;;;20.75;16.00;;;;;;;1.22;100.00;99095.78;1678999;85;21030;-75
2022/12/10 03:10:09;;;;;;;21.87;13.75;;;;;;;1.26;100.00;99097.00;1678632;84;21248;-73
2022/12/10 03:12:47;;;;;;;22.98;16.60;;;;;;;1.28;100.00;99087.84;1678062;84;20979;-74
2022/12/10 03:15:14;;;;;;;20.60;14.98;;;;;;;1.34;100.00;99090.19;1677512;85;21016;-75
2022/12/10 03:17:40;;;;;;;17.85;14.30;;;;;;;1.37;100.00;99092.92;1677321;85;20994;-75
2022/12/10 03:20:09;;;;;;;20.92;16.42;;;;;;;1.38;100.00;99091.91;1677248;84;21098;-74
2022/12/10 03:22:38;;;;;;;21.10;14.58;;;;;;;1.42;100.00;99101.07;1662176;84;21072;-73
2022/12/10 03:25:06;;;;;;;18.07;14.73;;;;;;;1.47;100.00;99095.97;1725217;83;20924;-75
2022/12/10 03:27:33;;;;;;;17.80;13.53;;;;;;;1.51;100.00;99091.88;1712801;83;20936;-77
2022/12/10 03:30:01;;;;;;;18.00;13.80;;;;;;;1.59;100.00;99081.05;1724796;82;20963;-77
2022/12/10 03:32:28;;;;;;;21.12;15.50;;;;;;;1.57;100.00;99074.66;1694816;84;21031;-75
2022/12/10 03:34:56;;;;;;;18.67;13.10;;;;;;;1.53;100.00;99072.13;1694253;84;21366;-76
2022/12/10 03:37:25;;;;;;;33.25;21.37;;;;;;;1.51;100.00;99060.09;1679963;84;21092;-74
2022/12/10 03:39:52;;;;;;;24.25;17.42;;;;;;;1.50;100.00;99051.32;1675257;84;21558;-75
2022/12/10 03:42:20;;;;;;;20.23;15.50;;;;;;;1.50;100.00;99055.30;1702240;84;21096;-76
2022/12/10 03:44:49;;;;;;;21.75;15.78;;;;;;;1.49;100.00;99052.34;1709581;84;21172;-74
2022/12/10 03:47:17;;;;;;;17.27;14.53;;;;;;;1.47;100.00;99048.28;1697100;82;20989;-84
2022/12/10 03:49:44;;;;;;;16.85;13.45;;;;;;;1.41;100.00;99042.48;1714880;83;20952;-81
2022/12/10 03:52:11;;;;;;;15.32;12.60;;;;;;;1.46;100.00;99047.97;1691351;83;20996;-83
2022/12/10 03:54:39;;;;;;;14.00;11.05;;;;;;;1.39;100.00;99052.48;1684620;85;20939;-84
2022/12/10 03:57:09;;;;;;;14.55;11.55;;;;;;;1.36;100.00;99052.37;1685759;85;21054;-75
2022/12/10 03:59:36;;;;;;;17.02;14.03;;;;;;;1.35;100.00;99042.78;1683749;85;21614;-76
2022/12/10 04:02:03;;;;;;;13.05;10.95;;;;;;;1.34;100.00;99023.97;1667537;84;21047;-79
2022/12/10 04:04:30;;;;;;;16.12;12.78;;;;;;;1.36;100.00;99035.15;1679866;85;21065;-79
2022/12/10 04:06:57;;;;;;;15.00;12.98;;;;;;;1.40;100.00;99034.22;1692617;84;20977;-83
2022/12/10 04:09:25;;;;;;;12.98;10.53;;;;;;;1.35;100.00;99031.38;1699352;84;20960;-84
2022/12/10 04:11:57;;;;;;;14.90;12.35;;;;;;;1.30;100.00;99037.29;1673242;84;21048;-77
2022/12/10 04:17:09;;;;;;;15.93;12.85;;;;;;;1.30;100.00;99035.46;1697939;84;21004;-84
2022/12/10 04:19:35;;;;;;;16.17;12.60;;;;;;;1.28;100.00;99015.52;1698903;84;20956;-85
2022/12/10 04:27:36;;;;;;;18.77;13.93;;;;;;;1.29;100.00;99001.25;1610175;88;21037;-82
2022/12/10 04:30:06;;;;;;;21.68;16.10;;;;;;;1.26;100.00;98997.17;1600780;88;21657;-84
2022/12/10 04:32:33;;;;;;;18.37;14.68;;;;;;;1.27;100.00;98997.98;1642823;84;20975;-80
2022/12/10 04:34:59;;;;;;;16.40;12.60;;;;;;;1.26;100.00;98997.17;1709706;83;21050;-85
2022/12/10 04:37:26;;;;;;;18.80;15.13;;;;;;;1.30;100.00;99001.03;1707954;84;21433;-83
2022/12/10 04:39:53;;;;;;;15.75;13.45;;;;;;;1.37;100.00;98998.38;1708023;84;20856;-83
2022/12/10 04:42:21;;;;;;;20.10;14.25;;;;;;;1.43;100.00;98990.11;1708133;83;21508;-83
2022/12/10 04:44:48;;;;;;;17.05;14.30;;;;;;;1.43;100.00;98982.98;1708564;84;20996;-86
2022/12/10 04:47:15;;;;;;;21.48;17.55;;;;;;;1.40;100.00;98979.41;1710105;83;20841;-82
2022/12/10 04:49:41;;;;;;;19.30;15.50;;;;;;;1.34;100.00;98977.61;1709505;84;21075;-80
2022/12/10 04:52:11;;;;;;;19.12;14.85;;;;;;;1.32;100.00;98978.31;1707997;83;20895;-84
2022/12/10 04:54:37;;;;;;;18.00;14.60;;;;;;;1.39;100.00;98973.01;1707754;84;21314;-85
2022/12/10 04:57:04;;;;;;;19.00;14.68;;;;;;;1.45;100.00;98962.38;1685511;84;20971;-83
2022/12/10 04:59:30;;;;;;;22.80;15.93;;;;;;;1.54;100.00;98966.92;1706818;84;21070;-79
2022/12/10 05:01:57;;;;;;;21.68;16.15;;;;;;;1.53;100.00;98950.75;1707719;83;22196;-78
2022/12/10 05:04:24;;;;;;;21.75;15.68;;;;;;;1.50;100.00;98962.56;1707667;84;21455;-81
2022/12/10 05:06:51;;;;;;;22.70;14.07;;;;;;;1.46;100.00;98946.79;1708499;84;21038;-79
2022/12/10 05:09:18;;;;;;;17.00;14.38;;;;;;;1.38;100.00;98947.03;1707766;82;21085;-81
2022/12/10 05:11:44;;;;;;;17.07;12.78;;;;;;;1.42;100.00;98938.14;1706628;83;21662;-86
2022/12/10 05:14:14;;;;;;;21.77;15.48;;;;;;;1.47;100.00;98926.41;1707321;84;21095;-81
2022/12/10 05:16:40;;;;;;;18.17;13.53;;;;;;;1.46;100.00;98941.99;1707553;84;20955;-82
2022/12/10 05:19:08;;;;;;;19.98;14.60;;;;;;;1.48;100.00;98938.13;1707615;83;20991;-83
2022/12/10 05:24:19;;;;;;;16.87;13.18;;;;;;;1.55;100.00;98916.89;1707874;84;20982;-86
2022/12/10 05:26:46;;;;;;;15.28;12.63;;;;;;;1.57;100.00;98918.83;1685415;84;21219;-80
2022/12/10 05:29:13;;;;;;;16.82;11.50;;;;;;;1.55;100.00;98918.21;1707015;84;21060;-82
2022/12/10 05:31:40;;;;;;;18.32;14.18;;;;;;;1.57;100.00;98919.64;1713850;82;21158;-78
2022/12/10 05:34:08;;;;;;;19.05;14.25;;;;;;;1.54;100.00;98922.70;1706572;84;20991;-84
2022/12/10 05:36:35;;;;;;;15.28;11.88;;;;;;;1.54;100.00;98909.45;1698760;84;20926;-83
2022/12/10 05:39:02;;;;;;;17.77;15.05;;;;;;;1.56;100.00;98913.22;1679198;84;21243;-84
2022/12/10 05:41:33;;;;;;;22.22;14.65;;;;;;;1.54;100.00;98907.30;1682898;83;20994;-79
2022/12/10 05:44:01;;;;;;;18.52;13.80;;;;;;;1.50;100.00;98908.25;1706435;83;21014;-82
2022/12/10 05:46:31;;;;;;;18.98;15.63;;;;;;;1.48;100.00;98908.98;1708013;82;20952;-83
2022/12/10 05:48:59;;;;;;;20.70;13.95;;;;;;;1.42;100.00;98907.68;1734180;81;20928;-83
2022/12/10 05:51:29;;;;;;;19.95;13.50;;;;;;;1.45;100.00;98914.69;1726269;82;21127;-84
2022/12/10 05:53:58;;;;;;;21.50;13.08;;;;;;;1.49;100.00;98913.75;1672305;84;20984;-85
2022/12/10 05:56:27;;;;;;;15.38;12.73;;;;;;;1.47;100.00;98917.95;1693337;83;21035;-82
2022/12/10 05:59:01;;;;;;;18.37;14.85;;;;;;;1.46;100.00;98910.20;1705176;81;21070;-89
2022/12/10 06:01:33;;;;;;;21.12;13.65;;;;;;;1.46;100.00;98911.53;1697315;83;21019;-77
2022/12/10 06:04:04;;;;;;;13.72;12.03;;;;;;;1.50;100.00;98896.83;1685098;83;21056;-88
2022/12/10 06:06:36;;;;;;;13.87;11.13;;;;;;;1.52;100.00;98897.45;1690347;84;21039;-88
2022/12/10 06:09:07;;;;;;;16.45;13.22;;;;;;;1.56;100.00;98896.81;1678201;84;20999;-85
2022/12/10 06:11:35;;;;;;;18.15;13.32;;;;;;;1.51;100.00;98900.61;1689690;83;21080;-82
2022/12/10 10:24:13;;;;;;;24.03;20.90;;;;;;;1.64;100.00;98622.80;1689882;82;2165254;-87
2022/12/10 10:26:43;;;;;;;22.70;19.00;;;;;;;1.63;100.00;98612.71;1671766;85;21146;-79
2022/12/10 10:29:14;;;;;;;22.67;18.65;;;;;;;1.67;100.00;98611.78;1688657;84;21933;-84
2022/12/10 10:31:41;;;;;;;21.57;17.92;;;;;;;1.71;100.00;98603.68;1714359;81;21017;-77
2022/12/10 10:34:22;;;;;;;20.65;16.00;;;;;;;1.74;100.00;98609.86;1763212;81;21053;-85
2022/12/10 10:36:58;;;;;;;21.20;15.60;;;;;;;1.81;100.00;98609.80;1719580;82;21018;-74
2022/12/10 10:39:29;;;;;;;21.17;15.60;;;;;;;1.84;100.00;98609.34;1729081;83;20940;-81
2022/12/10 10:41:59;;;;;;;16.32;13.22;;;;;;;1.82;100.00;98611.42;1724303;82;21007;-84
2022/12/10 10:44:28;;;;;;;17.25;13.45;;;;;;;1.82;100.00;98614.89;1732195;82;20979;-78
2022/12/10 10:46:55;;;;;;;17.57;15.72;;;;;;;1.88;100.00;98615.31;1727624;82;21035;-79
2022/12/10 10:49:28;;;;;;;19.23;14.38;;;;;;;1.94;100.00;98616.28;1727351;81;20987;-78
2022/12/10 10:51:59;;;;;;;25.15;16.35;;;;;;;1.92;100.00;98617.03;1736150;82;21613;-81
2022/12/10 10:54:42;;;;;;;22.05;16.93;;;;;;;1.99;100.00;98609.28;1722708;83;22427;-82
2022/12/10 10:57:39;;;;;;;24.50;14.93;;;;;;;2.03;100.00;98613.63;1726030;83;21036;-76
2022/12/10 11:00:12;;;;;;;18.20;14.58;;;;;;;2.09;100.00;98614.08;1726770;83;20952;-77
2022/12/10 11:02:41;;;;;;;23.65;14.35;;;;;;;2.08;100.00;98615.10;1728269;82;21043;-79
2022/12/10 11:05:28;;;;;;;19.77;14.87;;;;;;;2.09;100.00;98611.42;1725557;83;21091;-76
2022/12/10 11:08:03;;;;;;;15.68;14.03;;;;;;;2.11;100.00;98612.80;1723325;83;21147;-84
2022/12/10 11:10:30;;;;;;;16.32;14.13;;;;;;;2.16;100.00;98609.48;1706826;82;21096;-76
2022/12/10 11:13:07;;;;;;;18.37;14.60;;;;;;;2.18;100.00;98611.41;1705269;83;20933;-76
2022/12/10 11:15:39;;;;;;;17.90;14.07;;;;;;;2.24;100.00;98617.16;1685138;84;21659;-80
2022/12/10 11:18:31;;;;;;;16.25;13.03;;;;;;;2.30;100.00;98611.49;1704657;82;20987;-76
2022/12/10 11:21:16;;;;;;;17.30;13.45;;;;;;;2.38;100.00;98606.69;1683415;84;21564;-75
2022/12/10 11:23:46;;;;;;;22.10;14.25;;;;;;;2.49;100.00;98598.48;1704700;82;21060;-78
2022/12/10 11:26:25;;;;;;;18.85;16.20;;;;;;;2.52;100.00;98593.53;1704691;83;21640;-75
2022/12/10 11:29:19;;;;;;;21.37;18.05;;;;;;;2.53;100.00;98599.66;1698607;82;21072;-76
2022/12/10 11:32:14;;;;;;;25.62;16.73;;;;;;;2.49;100.00;98597.16;1697272;82;21095;-73
2022/12/10 11:35:06;;;;;;;15.23;13.60;;;;;;;2.41;100.00;98592.95;1700121;84;21154;-76
2022/12/10 11:37:59;;;;;;;18.23;14.75;;;;;;;2.40;100.00;98595.86;1705105;84;21020;-76
2022/12/10 11:40:34;;;;;;;17.30;13.68;;;;;;;2.31;100.00;98594.00;1705040;84;21103;-76
2022/12/10 11:43:49;;;;;;;16.40;13.13;;;;;;;2.35;100.00;98581.91;1700520;84;21010;-79
2022/12/10 11:46:42;;;;;;;23.02;16.17;;;;;;;2.35;100.00;98586.44;1709396;82;21024;-77
2022/12/10 11:49:42;;;;;;;17.98;15.68;;;;;;;2.33;100.00;98593.28;1707379;83;21873;-78
2022/12/10 11:52:24;;;;;;;15.50;13.88;;;;;;;2.37;100.00;98582.50;1698612;83;21011;-82
2022/12/10 11:55:20;;;;;;;16.02;13.85;;;;;;;2.52;100.00;98567.52;1679625;84;21128;-82
2022/12/10 11:58:35;;;;;;;18.82;14.40;;;;;;;2.52;100.00;98568.33;1658617;85;21001;-85
2022/12/10 12:01:53;;;;;;;20.82;15.95;;;;;;;2.53;100.00;98567.81;1658826;85;21698;-83
2022/12/10 12:04:57;;;;;;;23.50;17.20;;;;;;;2.53;100.00;98567.81;1676952;85;21115;-80
2022/12/10 12:07:53;;;;;;;17.75;13.65;;;;;;;2.53;100.00;98561.17;1675598;85;21583;-79
2022/12/10 12:10:40;;;;;;;19.40;14.75;;;;;;;2.63;100.00;98570.22;1677769;85;21610;-75
2022/12/10 12:13:24;;;;;;;18.90;15.53;;;;;;;2.63;100.00;98570.22;1699465;82;21580;-80
2022/12/10 12:16:00;;;;;;;23.45;16.35;;;;;;;2.61;100.00;98573.60;1706075;84;21028;-83
2022/12/10 12:18:50;;;;;;;18.70;13.00;;;;;;;2.61;100.00;98572.27;1706216;84;21285;-81
2022/12/10 12:21:16;;;;;;;19.00;13.62;;;;;;;2.60;100.00;98571.16;1708574;83;21021;-78
2022/12/10 12:24:08;;;;;;;18.57;15.95;;;;;;;2.59;100.00;98576.20;1678704;84;21076;-89
2022/12/10 12:27:01;;;;;;;25.08;16.77;;;;;;;2.60;100.00;98575.14;1698374;84;21077;-85
2022/12/10 12:29:42;;;;;;;27.77;18.20;;;;;;;2.62;100.00;98580.53;1633893;85;21076;-78
2022/12/10 12:32:26;;;;;;;28.62;18.57;;;;;;;2.68;100.00;98585.47;1684676;84;21488;-77
2022/12/10 12:34:58;;;;;;;24.82;17.00;;;;;;;2.70;100.00;98582.05;1681687;85;21025;-74
2022/12/10 12:37:30;;;;;;;24.20;18.80;;;;;;;2.70;100.00;98578.06;1683131;85;20950;-77
2022/12/10 12:40:20;;;;;;;25.40;19.02;;;;;;;2.70;100.00;98586.54;1658858;84;21031;-75
2022/12/10 12:43:11;;;;;;;27.50;16.35;;;;;;;2.70;100.00;98583.37;1655577;86;21095;-77
2022/12/10 12:45:47;;;;;;;24.55;17.30;;;;;;;2.75;100.00;98582.70;1597411;86;21180;-73
2022/12/10 12:48:58;;;;;;;26.25;18.50;;;;;;;2.77;100.00;98588.60;1660114;85;21570;-79
2022/12/10 12:51:39;;;;;;;22.48;17.45;;;;;;;2.69;100.00;98577.77;1682831;85;21052;-84
2022/12/10 12:54:06;;;;;;;22.05;17.80;;;;;;;2.74;100.00;98579.73;1681961;85;20995;-76
2022/12/10 12:56:59;;;;;;;25.72;19.00;;;;;;;2.73;100.00;98578.15;1653660;85;20993;-71
2022/12/10 12:59:56;;;;;;;20.45;15.23;;;;;;;2.76;100.00;98582.48;1682300;84;21129;-72
2022/12/10 13:02:59;;;;;;;22.77;17.37;;;;;;;2.76;100.00;98577.17;1681715;85;21037;-70
2022/12/10 13:05:34;;;;;;;19.35;13.53;;;;;;;2.77;100.00;98572.67;1681863;85;20973;-73
2022/12/10 13:08:17;;;;;;;19.60;16.23;;;;;;;2.77;100.00;98572.67;1682520;84;21045;-82
2022/12/10 13:11:04;;;;;;;26.52;17.23;;;;;;;2.86;100.00;98577.43;1615272;86;27062;-70
2022/12/10 13:13:37;;;;;;;19.07;15.63;;;;;;;2.97;100.00;98571.86;1654142;86;21128;-75
2022/12/10 13:16:41;;;;;;;27.25;19.60;;;;;;;2.97;100.00;98571.86;1627749;86;21028;-72
2022/12/10 13:19:19;;;;;;;;;;;;;;;2.96;100.00;98588.30;1671280;84;21006;-69
2022/12/10 13:22:07;;;;;;;31.27;20.02;;;;;;;2.98;100.00;98578.77;1680222;85;20137;-70
2022/12/10 13:24:39;;;;;;;27.82;18.45;;;;;;;2.95;100.00;98581.37;1700933;82;21653;-69
2022/12/10 13:27:17;;;;;;;37.23;26.25;;;;;;;2.96;100.00;98581.67;1700261;82;21371;-72
2022/12/10 13:30:14;;;;;;;56.65;29.30;;;;;;;2.99;100.00;98585.70;1704931;84;22250;-71
2022/12/10 13:32:47;;;;;;;38.00;27.45;;;;;;;3.01;100.00;98583.64;1684188;83;21063;-73
2022/12/10 13:35:25;;;;;;;42.08;28.27;;;;;;;3.03;100.00;98592.98;1676093;85;20992;-71
2022/12/10 13:37:59;;;;;;;41.70;28.47;;;;;;;3.02;100.00;98591.36;1676936;85;21083;-69
2022/12/10 13:46:28;;;;;;;30.25;24.30;;;;;;;2.92;100.00;98589.80;1706892;83;21035;-74
2022/12/10 13:48:59;;;;;;;35.48;25.82;;;;;;;2.91;100.00;98590.84;1693618;83;21588;-77
2022/12/10 13:51:35;;;;;;;30.43;22.48;;;;;;;2.91;100.00;98586.85;1702836;83;21087;-79
2022/12/10 13:54:17;;;;;;;32.10;23.18;;;;;;;2.95;100.00;98588.01;1704765;84;22287;-75
2022/12/10 13:57:03;;;;;;;25.88;20.75;;;;;;;2.97;100.00;98578.50;1663346;84;21079;-74
2022/12/10 13:59:37;;;;;;;28.55;22.07;;;;;;;3.00;100.00;98583.34;1682261;83;20979;-73
2022/12/10 14:02:34;;;;;;;30.57;23.55;;;;;;;3.03;100.00;98582.87;1708140;83;20956;-78
2022/12/10 18:55:29;;;;;;;71.17;48.30;;;;;;;3.38;100.00;98634.74;1749890;77;31198;-73
2022/12/10 18:57:55;;;;;;;73.80;46.42;;;;;;;3.38;100.00;98634.74;1694050;83;21044;-71
2022/12/10 19:00:25;;;;;;;84.35;54.88;;;;;;;3.42;100.00;98628.73;1709074;83;21171;-74
2022/12/10 19:02:51;;;;;;;81.10;53.40;;;;;;;3.55;100.00;98625.58;1680747;83;21681;-72
2022/12/10 19:05:18;;;;;;;64.90;44.75;;;;;;;3.54;100.00;98633.27;1709501;83;21117;-75
2022/12/10 19:07:45;;;;;;;52.08;33.45;;;;;;;3.59;100.00;98633.38;1706491;83;21491;-77
2022/12/10 19:10:22;;;;;;;72.03;40.88;;;;;;;3.66;100.00;98628.74;1709707;82;20987;-83
2022/12/10 19:12:48;;;;;;;48.35;30.80;;;;;;;3.77;100.00;98630.60;1694033;82;21264;-79
2022/12/10 19:18:20;;;;;;;27.05;20.35;;;;;;;3.93;100.00;98629.91;1714262;82;20948;-78
2022/12/10 19:20:48;;;;;;;22.73;17.60;;;;;;;4.00;100.00;98636.42;1709740;83;21033;-78
2022/12/10 19:23:15;;;;;;;28.77;21.75;;;;;;;4.12;100.00;98640.70;1708331;83;21093;-85
2022/12/10 19:25:43;;;;;;;19.57;15.98;;;;;;;4.27;100.00;98642.33;1676285;83;21060;-83
2022/12/10 19:28:10;;;;;;;23.95;17.90;;;;;;;4.42;100.00;98633.84;1697179;83;21320;-89
2022/12/10 19:30:42;;;;;;;25.23;18.98;;;;;;;4.49;100.00;98633.72;1682006;84;21020;-91
2022/12/10 19:33:16;;;;;;;19.52;16.97;;;;;;;4.49;100.00;98631.87;1707879;84;20956;-85
2022/12/10 19:35:44;;;;;;;42.73;26.82;;;;;;;4.48;100.00;98630.24;1709342;83;21096;-82
2022/12/10 19:38:13;;;;;;;34.80;23.55;;;;;;;4.45;100.00;98636.57;1711845;83;21169;-77
2022/12/10 19:40:40;;;;;;;48.78;33.25;;;;;;;4.42;100.00;98629.03;1710276;83;21120;-79
2022/12/10 19:43:07;;;;;;;58.60;38.58;;;;;;;4.37;100.00;98637.21;1709910;83;21069;-80
2022/12/10 19:45:34;;;;;;;66.47;42.62;;;;;;;4.44;100.00;98631.77;1706393;84;21068;-79
2022/12/10 19:48:00;;;;;;;78.30;49.58;;;;;;;4.49;100.00;98629.73;1708462;83;21637;-84
2022/12/10 19:50:34;;;;;;;70.97;45.90;;;;;;;4.56;100.00;98623.20;1636622;85;21635;-82
2022/12/10 19:53:06;;;;;;;90.00;55.00;;;;;;;4.58;100.00;98625.12;1705528;83;20995;-80
2022/12/10 19:55:37;;;;;;;74.20;45.05;;;;;;;4.59;100.00;98622.75;1707812;82;21503;-81
2022/12/10 19:58:04;;;;;;;80.55;51.55;;;;;;;4.56;100.00;98623.20;1680139;84;21567;-81
2022/12/10 20:00:32;;;;;;;65.35;42.67;;;;;;;4.55;100.00;98631.45;1705893;84;21122;-84
2022/12/10 20:03:02;;;;;;;61.05;41.92;;;;;;;4.55;100.00;98626.12;1705455;84;21132;-86
2022/12/10 20:05:28;;;;;;;88.58;55.75;;;;;;;4.58;100.00;98625.12;1683678;83;21025;-71
2022/12/10 20:07:55;;;;;;;79.90;49.98;;;;;;;4.64;100.00;98630.02;1686712;83;21029;-77
2022/12/10 20:10:28;;;;;;;71.35;48.63;;;;;;;4.64;100.00;98630.02;1707335;83;20974;-77
2022/12/10 20:12:55;;;;;;;88.60;58.15;;;;;;;4.74;100.00;98636.87;1708559;83;21538;-75
2022/12/10 20:15:22;;;;;;;47.58;34.23;;;;;;;4.77;100.00;98651.85;1701246;83;21728;-78
2022/12/10 20:17:49;;;;;;;40.33;29.50;;;;;;;4.80;100.00;98649.22;1699343;83;21258;-77
2022/12/10 20:20:20;;;;;;;90.03;55.48;;;;;;;4.83;100.00;98646.91;1706184;83;21291;-78
2022/12/10 20:22:46;;;;;;;44.27;29.07;;;;;;;4.86;100.00;98663.45;1708985;83;21049;-82
2022/12/10 20:25:13;;;;;;;44.75;30.65;;;;;;;4.88;100.00;98658.70;1684460;83;21017;-81
2022/12/10 20:27:41;;;;;;;90.65;59.40;;;;;;;4.88;100.00;98657.38;1668207;84;21374;-78
2022/12/10 20:30:26;;;;;;;66.10;44.25;;;;;;;4.81;100.00;98651.66;1708705;84;20998;-82
2022/12/10 20:32:54;;;;;;;90.17;56.00;;;;;;;4.82;100.00;98651.14;1676974;83;20964;-82
2022/12/10 20:35:21;;;;;;;98.45;66.30;;;;;;;4.81;100.00;98652.17;1703323;83;21035;-82
2022/12/10 20:37:49;;;;;;;92.25;55.00;;;;;;;4.77;100.00;98665.17;1680175;85;21042;-83
2022/12/10 20:40:23;;;;;;;83.87;50.30;;;;;;;4.79;100.00;98668.94;1686351;83;21039;-80
2022/12/10 20:42:52;;;;;;;67.50;42.67;;;;;;;4.81;100.00;98669.48;1681226;83;21034;-80
2022/12/10 20:45:19;;;;;;;78.20;53.78;;;;;;;4.86;100.00;98660.78;1698311;84;21025;-82
2022/12/10 20:47:47;;;;;;;109.48;68.12;;;;;;;4.82;100.00;98659.94;1681732;82;21028;-85
2022/12/10 20:50:16;;;;;;;129.15;81.53;;;;;;;4.74;100.00;98649.67;1695026;83;20988;-83
2022/12/10 20:52:45;;;;;;;112.70;71.65;;;;;;;4.68;100.00;98664.45;1705988;84;22042;-84
2022/12/10 20:55:13;;;;;;;94.95;59.63;;;;;;;4.62;100.00;98683.51;1676874;83;21088;-81
2022/12/10 20:57:39;;;;;;;73.30;51.63;;;;;;;4.73;100.00;98694.66;1665178;84;21089;-81
2022/12/10 21:00:09;;;;;;;116.82;68.62;;;;;;;4.82;100.00;98675.92;1707142;84;21542;-79
2022/12/10 21:02:36;;;;;;;109.17;68.95;;;;;;;4.88;100.00;98682.68;1702616;84;21062;-78
2022/12/10 21:05:03;;;;;;;111.37;67.78;;;;;;;4.89;100.00;98689.11;1706688;84;21110;-82
2022/12/10 21:07:32;;;;;;;81.02;55.28;;;;;;;4.88;100.00;98680.83;1681194;82;20963;-78
2022/12/10 21:09:59;;;;;;;117.35;69.60;;;;;;;4.87;100.00;98669.88;1700380;84;21089;-79
2022/12/10 21:12:26;;;;;;;103.87;66.30;;;;;;;4.88;100.00;98670.69;1706984;84;21045;-80
2022/12/10 21:14:52;;;;;;;108.75;66.53;;;;;;;4.87;100.00;98661.89;1680235;84;21051;-80
2022/12/10 21:17:20;;;;;;;99.45;63.65;;;;;;;4.90;100.00;98653.41;1704171;83;22282;-79
2022/12/10 21:19:49;;;;;;;110.05;68.75;;;;;;;4.89;100.00;98653.15;1718991;83;20974;-78
2022/12/10 21:22:16;;;;;;;108.17;65.90;;;;;;;4.74;100.00;98656.34;1708365;83;22299;-82
2022/12/10 21:24:43;;;;;;;115.60;73.78;;;;;;;4.63;100.00;98651.03;1697061;83;21474;-80
2022/12/10 21:27:11;;;;;;;133.27;86.30;;;;;;;4.52;100.00;98658.53;1719975;83;21046;-79
2022/12/10 21:29:38;;;;;;;128.50;77.40;;;;;;;4.43;100.00;98654.10;1719312;83;21510;-77
2022/12/10 21:32:05;;;;;;;120.67;76.05;;;;;;;4.43;100.00;98660.75;1719991;83;20994;-76
2022/12/10 21:34:32;;;;;;;105.45;69.25;;;;;;;4.49;100.00;98677.13;1709762;83;21549;-77
2022/12/10 21:36:58;;;;;;;94.42;60.35;;;;;;;4.55;100.00;98680.19;1689179;85;20994;-78
2022/12/10 21:39:25;;;;;;;111.92;67.97;;;;;;;4.59;100.00;98676.52;1703787;83;21044;-81
2022/12/10 21:44:36;;;;;;;72.00;45.33;;;;;;;4.56;100.00;98671.65;1689235;85;21057;-77
2022/12/10 21:47:03;;;;;;;129.93;79.00;;;;;;;4.59;100.00;98665.35;1689303;85;20946;-79
2022/12/10 21:49:30;;;;;;;141.25;83.58;;;;;;;4.63;100.00;98661.17;1711489;83;21038;-78
2022/12/10 21:52:03;;;;;;;133.32;85.60;;;;;;;4.63;100.00;98643.86;1698557;83;20954;-77
2022/12/10 21:54:30;;;;;;;143.37;87.40;;;;;;;4.64;100.00;98648.66;1697386;83;21794;-79
2022/12/10 21:56:57;;;;;;;125.75;74.62;;;;;;;4.65;100.00;98671.05;1721521;83;21645;-79
2022/12/10 21:59:23;;;;;;;96.53;63.85;;;;;;;4.70;100.00;98673.02;1673215;84;21571;-79
2022/12/10 22:01:56;;;;;;;97.30;64.58;;;;;;;4.77;100.00;98673.16;1682152;82;21069;-82
2022/12/10 22:04:23;;;;;;;129.70;73.90;;;;;;;4.78;100.00;98681.44;1681206;85;21120;-78
2022/12/10 22:06:49;;;;;;;135.48;81.53;;;;;;;4.79;100.00;98679.07;1680864;85;21568;-77
2022/12/10 22:09:16;;;;;;;98.62;60.67;;;;;;;4.75;100.00;98675.76;1699954;82;21523;-77
2022/12/10 22:11:43;;;;;;;83.67;52.75;;;;;;;4.76;100.00;98677.38;1680725;85;21025;-76
2022/12/10 22:14:09;;;;;;;93.95;63.33;;;;;;;4.79;100.00;98668.94;1686848;82;21060;-78
2022/12/10 22:16:35;;;;;;;83.15;53.40;;;;;;;4.82;100.00;98653.80;1681931;83;20982;-80
2022/12/10 22:19:02;;;;;;;100.18;57.50;;;;;;;4.90;100.00;98656.59;1680871;85;21153;-85
2022/12/10 22:21:29;;;;;;;109.87;64.17;;;;;;;4.96;100.00;98652.98;1652283;85;20981;-87
2022/12/10 22:23:56;;;;;;;113.32;65.95;;;;;;;5.00;100.00;98645.60;1680752;85;20938;-85
2022/12/10 22:26:22;;;;;;;108.52;66.05;;;;;;;4.97;100.00;98639.44;1656833;83;20988;-74
2022/12/10 22:28:49;;;;;;;142.25;81.22;;;;;;;4.86;100.00;98646.13;1694052;83;21518;-75
2022/12/10 22:31:15;;;;;;;149.07;88.42;;;;;;;4.67;100.00;98654.31;1680575;85;21196;-75
2022/12/10 22:33:44;;;;;;;155.78;92.47;;;;;;;4.60;100.00;98653.66;1680826;85;21005;-76
2022/12/10 22:36:10;;;;;;;145.30;79.87;;;;;;;4.56;100.00;98655.16;1677364;83;21065;-78
2022/12/10 22:38:37;;;;;;;126.30;73.10;;;;;;;4.54;100.00;98659.11;1709483;83;21037;-78
2022/12/10 22:41:03;;;;;;;90.42;54.88;;;;;;;4.59;100.00;98658.70;1709534;83;21455;-84
2022/12/10 22:43:30;;;;;;;111.08;63.85;;;;;;;4.64;100.00;98661.45;1658441;83;21157;-81
2022/12/10 22:45:57;;;;;;;117.95;70.62;;;;;;;4.64;100.00;98663.31;1706359;83;21082;-79
2022/12/10 22:48:25;;;;;;;108.97;61.90;;;;;;;4.62;100.00;98667.53;1705322;84;21020;-81
2022/12/10 22:51:00;;;;;;;123.00;68.40;;;;;;;4.62;100.00;98668.05;1677966;84;21056;-76
2022/12/10 22:53:26;;;;;;;116.47;66.75;;;;;;;4.63;100.00;98665.68;1705656;84;21556;-76
2022/12/10 22:56:03;;;;;;;98.17;57.40;;;;;;;4.65;100.00;98667.59;1707806;82;21315;-76
2022/12/10 22:58:30;;;;;;;104.95;62.95;;;;;;;4.72;100.00;98669.58;1688952;82;21043;-77
2022/12/10 23:00:56;;;;;;;121.13;66.97;;;;;;;4.81;100.00;98668.16;1680725;85;21549;-80
2022/12/10 23:03:23;;;;;;;92.30;57.17;;;;;;;4.82;100.00;98665.79;1680959;85;21041;-78
2022/12/10 23:05:51;;;;;;;83.65;52.80;;;;;;;4.82;100.00;98665.27;1700045;84;21042;-78
2022/12/10 23:08:18;;;;;;;102.45;59.30;;;;;;;4.84;100.00;98655.72;1709419;83;21148;-78
2022/12/10 23:10:45;;;;;;;128.90;74.45;;;;;;;4.83;100.00;98658.09;1709558;83;21098;-78
2022/12/10 23:13:20;;;;;;;150.95;85.65;;;;;;;4.79;100.00;98651.11;1693531;83;21033;-78
2022/12/10 23:15:43;;;;;;;145.65;85.05;;;;;;;4.79;100.00;98646.30;1697411;84;21091;-76
2022/12/10 23:18:11;;;;;;;165.60;92.60;;;;;;;4.76;100.00;98642.23;1709746;83;21670;-76
2022/12/10 23:20:37;;;;;;;159.82;91.47;;;;;;;4.71;100.00;98643.47;1709532;84;21847;-77
2022/12/10 23:23:04;;;;;;;167.57;89.52;;;;;;;4.72;100.00;98640.29;1709184;84;21050;-79
2022/12/10 23:25:30;;;;;;;171.18;94.65;;;;;;;4.71;100.00;98637.33;1709859;83;21017;-79
2022/12/10 23:27:58;;;;;;;175.22;94.42;;;;;;;4.72;100.00;98638.95;1693271;83;21053;-80
2022/12/10 23:30:24;;;;;;;161.47;88.22;;;;;;;4.72;100.00;98638.44;1681025;85;21088;-79
2022/12/10 23:32:51;;;;;;;120.37;69.62;;;;;;;4.70;100.00;98654.38;1702035;83;21097;-79
2022/12/10 23:35:17;;;;;;;110.70;65.67;;;;;;;4.70;100.00;98655.16;1709844;83;20967;-78
2022/12/10 23:37:44;;;;;;;119.72;67.47;;;;;;;4.70;100.00;98658.38;1709713;83;21066;-78
2022/12/10 23:40:11;;;;;;;119.28;72.90;;;;;;;4.74;100.00;98664.32;1708790;83;21039;-80
2022/12/10 23:42:38;;;;;;;111.28;67.35;;;;;;;4.81;100.00;98658.31;1692631;82;21360;-81
2022/12/10 23:45:06;;;;;;;107.35;61.75;;;;;;;4.87;100.00;98657.08;1681002;85;21244;-80
2022/12/10 23:47:33;;;;;;;107.25;66.57;;;;;;;4.93;100.00;98651.62;1680716;85;21066;-78
2022/12/10 23:50:00;;;;;;;103.02;64.60;;;;;;;4.89;100.00;98640.34;1659421;83;21108;-80
2022/12/10 23:52:27;;;;;;;101.30;60.98;;;;;;;4.81;100.00;98630.87;1709441;83;21574;-84
2022/12/10 23:54:53;;;;;;;103.53;61.45;;;;;;;4.78;100.00;98620.70;1709941;82;21010;-83